Terminal Aerodrome Forecast
Issued by NWS Lake Charles, LA

Home | Current Version | Previous Version | Text Only | Print | Product List | Glossary On
Versions: 1 2 3 4 5 6 7 8 9 10 11 12 13 14 15
000
FTUS44 KLCH 311100
TAFAEX
TAF
KAEX 311134Z 3112/0112 07003KT P6SM BKN200
     FM311500 11007KT P6SM SCT050 OVC200
     FM010300 12008KT P6SM SCT025 OVC050
     FM010900 13009KT P6SM -SHRA OVC025=

USA.gov is the U.S. government's official web portal to all federal, state and local government web resources and services.